Aérodrome :
LOGIN :

S'inscrire | Disclaimer

   EN    FR    IT 

 










Légende :    VFR   VFR Marginal   IFR   IFR Intensif   IFR Très Intensif
Visi : 
Plafond : 
>= 8 km
>= 3000ft
5 à 8 km
1000 à 3000 ft
1500m à 5 km
500 à 1000 ft
800 à 1500m
200 à 500 ft
< 800m
< 200 ft
Symboles :   Orages  Brouillard  Fortes neiges  Fortes précipitations  Vent > 20 kt
SIGMETs :   Divers  Orages  Givrage  Turbulence  Onde Orograph.  Cendres Volcan.






- Altitude de l'aérodrome : 650 ft
- Code IATA : ZJI


LSZL - Locarno

DERNIER METAR :
  • 230150Z AUTO VRB01KT 9999NDV BKN083 BKN094 23/19 Q1016 RMK

METARs EXPIRÉS :
  • 230120Z AUTO VRB02KT 9999NDV OVC090 23/19 Q1016 RMK
  • 230050Z AUTO 06005KT 040V110 9999NDV BKN091 23/19 Q1016 RMK
  • 230020Z AUTO 00000KT 9999NDV BKN100 23/20 Q1016 RMK
  • 222350Z AUTO VRB02KT 9999NDV FEW085 BKN110 23/20 Q1016 RMK
  • 222320Z AUTO 00000KT 9999NDV SCT084 BKN100 24/20 Q1016 RMK
  • 222250Z AUTO 20003KT 160V250 9999NDV BKN084 BKN130 24/20 Q1016 RMK
  • 222220Z AUTO 26005KT 9999NDV FEW084 OVC130 24/20 Q1016 RMK
  • 222150Z AUTO 26005KT 9999NDV BKN085 BKN100 BKN130 24/20 Q1016 RMK

TAF TAF LSZL
Valide du 22 à 18h jusqu'au 23 à 03h UTC


221725Z 2218/2303 VRB02KT 9999 FEW080
PROB30
TEMPO 2218/2303 SHRA SCT050TCU



MET'MAP, la Météo Aéronautique d'un coup d'oeil ! - Copyright ORBIFLY Décembre 2007 - Disclaimer

ORBIFLY MET'MAP TEAM :

Programmation & Développement : Alexandra Zaïnal
Sur une idée originale de : Baudouin d'Aumeries
Soutien technique & logistique : Manuel Goepfert
Assistance : Marc-Olivier Méhu




SOURCES & CREDITS :

   NOAA